sensor_id;sensor_type;location;lat;lon;timestamp;P1;durP1;ratioP1;P2;durP2;ratioP2
29906;SDS011;16776;50.958;10.994;2022-09-12T00:00:39;3.33;;;2.45;;
29906;SDS011;16776;50.958;10.994;2022-09-12T00:03:07;2.67;;;2.38;;
29906;SDS011;16776;50.958;10.994;2022-09-12T00:05:39;2.90;;;2.60;;
29906;SDS011;16776;50.958;10.994;2022-09-12T00:08:08;3.28;;;2.53;;
29906;SDS011;16776;50.958;10.994;2022-09-12T00:10:37;2.85;;;2.55;;
29906;SDS011;16776;50.958;10.994;2022-09-12T00:13:04;3.08;;;2.35;;
29906;SDS011;16776;50.958;10.994;2022-09-12T00:15:31;2.97;;;2.67;;
29906;SDS011;16776;50.958;10.994;2022-09-12T00:17:58;3.55;;;2.92;;
29906;SDS011;16776;50.958;10.994;2022-09-12T00:20:24;3.35;;;2.80;;
29906;SDS011;16776;50.958;10.994;2022-09-12T00:22:51;2.97;;;2.42;;
29906;SDS011;16776;50.958;10.994;2022-09-12T00:25:17;4.13;;;2.45;;
29906;SDS011;16776;50.958;10.994;2022-09-12T00:27:45;3.85;;;2.60;;
29906;SDS011;16776;50.958;10.994;2022-09-12T00:30:11;3.15;;;2.03;;
29906;SDS011;16776;50.958;10.994;2022-09-12T00:32:38;3.03;;;2.63;;
29906;SDS011;16776;50.958;10.994;2022-09-12T00:35:05;3.50;;;2.80;;
29906;SDS011;16776;50.958;10.994;2022-09-12T00:37:33;2.50;;;2.10;;
29906;SDS011;16776;50.958;10.994;2022-09-12T00:39:59;4.90;;;2.60;;
29906;SDS011;16776;50.958;10.994;2022-09-12T00:42:26;3.45;;;2.35;;
29906;SDS011;16776;50.958;10.994;2022-09-12T00:44:54;2.35;;;2.10;;
29906;SDS011;16776;50.958;10.994;2022-09-12T00:47:24;3.35;;;2.08;;
29906;SDS011;16776;50.958;10.994;2022-09-12T00:49:57;3.45;;;2.33;;
29906;SDS011;16776;50.958;10.994;2022-09-12T00:52:30;3.88;;;2.35;;
29906;SDS011;16776;50.958;10.994;2022-09-12T00:55:02;3.42;;;2.40;;
29906;SDS011;16776;50.958;10.994;2022-09-12T00:57:33;4.05;;;3.05;;
29906;SDS011;16776;50.958;10.994;2022-09-12T01:00:07;2.80;;;2.25;;
29906;SDS011;16776;50.958;10.994;2022-09-12T01:02:38;3.83;;;2.58;;
29906;SDS011;16776;50.958;10.994;2022-09-12T01:05:05;2.60;;;2.35;;
29906;SDS011;16776;50.958;10.994;2022-09-12T01:07:33;3.25;;;2.30;;
29906;SDS011;16776;50.958;10.994;2022-09-12T01:10:00;2.63;;;2.42;;
29906;SDS011;16776;50.958;10.994;2022-09-12T01:12:27;4.00;;;2.55;;
29906;SDS011;16776;50.958;10.994;2022-09-12T01:14:55;3.72;;;2.38;;
29906;SDS011;16776;50.958;10.994;2022-09-12T01:17:22;2.97;;;2.40;;
29906;SDS011;16776;50.958;10.994;2022-09-12T01:20:12;2.53;;;2.33;;
29906;SDS011;16776;50.958;10.994;2022-09-12T01:25:59;3.00;;;2.15;;
29906;SDS011;16776;50.958;10.994;2022-09-12T01:28:49;4.60;;;2.60;;
29906;SDS011;16776;50.958;10.994;2022-09-12T01:31:39;2.90;;;2.40;;
29906;SDS011;16776;50.958;10.994;2022-09-12T01:34:14;2.40;;;2.03;;
29906;SDS011;16776;50.958;10.994;2022-09-12T01:36:47;3.53;;;2.45;;
29906;SDS011;16776;50.958;10.994;2022-09-12T01:39:26;2.47;;;2.15;;
29906;SDS011;16776;50.958;10.994;2022-09-12T01:42:04;2.30;;;2.10;;
29906;SDS011;16776;50.958;10.994;2022-09-12T01:44:38;3.00;;;2.20;;
29906;SDS011;16776;50.958;10.994;2022-09-12T01:47:15;3.03;;;1.80;;
29906;SDS011;16776;50.958;10.994;2022-09-12T01:49:49;2.85;;;2.20;;
29906;SDS011;16776;50.958;10.994;2022-09-12T01:52:24;2.60;;;1.88;;
29906;SDS011;16776;50.958;10.994;2022-09-12T01:54:58;3.08;;;2.25;;
29906;SDS011;16776;50.958;10.994;2022-09-12T01:57:30;3.17;;;1.90;;
29906;SDS011;16776;50.958;10.994;2022-09-12T02:00:03;2.30;;;1.88;;
29906;SDS011;16776;50.958;10.994;2022-09-12T02:02:36;2.63;;;2.03;;
29906;SDS011;16776;50.958;10.994;2022-09-12T02:05:07;3.17;;;2.47;;
29906;SDS011;16776;50.958;10.994;2022-09-12T02:07:37;3.50;;;1.75;;
29906;SDS011;16776;50.958;10.994;2022-09-12T02:10:08;1.88;;;1.77;;
29906;SDS011;16776;50.958;10.994;2022-09-12T02:12:39;2.47;;;2.00;;
29906;SDS011;16776;50.958;10.994;2022-09-12T02:17:41;1.77;;;1.63;;
29906;SDS011;16776;50.958;10.994;2022-09-12T02:20:14;1.65;;;1.48;;
29906;SDS011;16776;50.958;10.994;2022-09-12T02:22:44;2.38;;;1.88;;
29906;SDS011;16776;50.958;10.994;2022-09-12T02:25:14;1.98;;;1.67;;
29906;SDS011;16776;50.958;10.994;2022-09-12T02:27:44;2.03;;;1.63;;
29906;SDS011;16776;50.958;10.994;2022-09-12T02:30:14;2.95;;;1.73;;
29906;SDS011;16776;50.958;10.994;2022-09-12T02:32:45;1.90;;;1.67;;
29906;SDS011;16776;50.958;10.994;2022-09-12T02:35:26;2.72;;;1.92;;
29906;SDS011;16776;50.958;10.994;2022-09-12T02:38:01;2.55;;;2.17;;
29906;SDS011;16776;50.958;10.994;2022-09-12T02:40:31;1.65;;;1.55;;
29906;SDS011;16776;50.958;10.994;2022-09-12T02:42:58;2.85;;;2.28;;
29906;SDS011;16776;50.958;10.994;2022-09-12T02:45:26;2.58;;;1.90;;
29906;SDS011;16776;50.958;10.994;2022-09-12T02:47:55;2.97;;;2.42;;
29906;SDS011;16776;50.958;10.994;2022-09-12T02:50:27;3.33;;;2.50;;
29906;SDS011;16776;50.958;10.994;2022-09-12T02:52:54;2.60;;;2.00;;
29906;SDS011;16776;50.958;10.994;2022-09-12T02:55:24;2.22;;;2.00;;
29906;SDS011;16776;50.958;10.994;2022-09-12T02:57:50;2.42;;;1.95;;
29906;SDS011;16776;50.958;10.994;2022-09-12T03:00:19;2.88;;;2.17;;
29906;SDS011;16776;50.958;10.994;2022-09-12T03:02:59;2.75;;;1.95;;
29906;SDS011;16776;50.958;10.994;2022-09-12T03:05:44;2.38;;;2.15;;
29906;SDS011;16776;50.958;10.994;2022-09-12T03:08:25;3.30;;;1.67;;
29906;SDS011;16776;50.958;10.994;2022-09-12T03:11:16;2.20;;;1.95;;
29906;SDS011;16776;50.958;10.994;2022-09-12T03:13:58;2.08;;;1.90;;
29906;SDS011;16776;50.958;10.994;2022-09-12T03:16:33;3.03;;;2.60;;
29906;SDS011;16776;50.958;10.994;2022-09-12T03:19:05;3.20;;;2.47;;
29906;SDS011;16776;50.958;10.994;2022-09-12T03:21:41;3.53;;;2.30;;
29906;SDS011;16776;50.958;10.994;2022-09-12T03:24:19;3.50;;;2.67;;
29906;SDS011;16776;50.958;10.994;2022-09-12T03:29:20;3.67;;;1.75;;
29906;SDS011;16776;50.958;10.994;2022-09-12T03:31:48;2.42;;;2.13;;
29906;SDS011;16776;50.958;10.994;2022-09-12T03:34:17;2.50;;;1.90;;
29906;SDS011;16776;50.958;10.994;2022-09-12T03:36:45;2.90;;;1.83;;
29906;SDS011;16776;50.958;10.994;2022-09-12T03:39:15;3.33;;;2.33;;
29906;SDS011;16776;50.958;10.994;2022-09-12T03:41:42;2.17;;;1.95;;
29906;SDS011;16776;50.958;10.994;2022-09-12T03:44:09;2.05;;;1.70;;
29906;SDS011;16776;50.958;10.994;2022-09-12T03:46:35;3.38;;;2.40;;
29906;SDS011;16776;50.958;10.994;2022-09-12T03:49:02;2.78;;;2.00;;
29906;SDS011;16776;50.958;10.994;2022-09-12T03:51:31;3.47;;;1.88;;
29906;SDS011;16776;50.958;10.994;2022-09-12T03:53:57;2.45;;;1.88;;
29906;SDS011;16776;50.958;10.994;2022-09-12T03:56:24;2.03;;;1.63;;
29906;SDS011;16776;50.958;10.994;2022-09-12T03:58:50;2.35;;;2.10;;
29906;SDS011;16776;50.958;10.994;2022-09-12T04:01:17;2.33;;;2.13;;
29906;SDS011;16776;50.958;10.994;2022-09-12T04:03:47;2.20;;;2.00;;
29906;SDS011;16776;50.958;10.994;2022-09-12T04:06:16;2.63;;;2.22;;
29906;SDS011;16776;50.958;10.994;2022-09-12T04:08:48;3.25;;;2.40;;
29906;SDS011;16776;50.958;10.994;2022-09-12T04:11:16;2.65;;;2.03;;
29906;SDS011;16776;50.958;10.994;2022-09-12T04:13:44;2.55;;;2.35;;
29906;SDS011;16776;50.958;10.994;2022-09-12T04:16:13;2.17;;;1.95;;
29906;SDS011;16776;50.958;10.994;2022-09-12T04:18:40;2.40;;;1.90;;
29906;SDS011;16776;50.958;10.994;2022-09-12T04:21:09;1.90;;;1.70;;
29906;SDS011;16776;50.958;10.994;2022-09-12T04:23:37;2.05;;;1.85;;
29906;SDS011;16776;50.958;10.994;2022-09-12T04:26:05;2.20;;;2.00;;
29906;SDS011;16776;50.958;10.994;2022-09-12T04:28:33;2.10;;;1.90;;
29906;SDS011;16776;50.958;10.994;2022-09-12T04:31:00;2.97;;;2.33;;
29906;SDS011;16776;50.958;10.994;2022-09-12T04:33:28;1.80;;;1.70;;
29906;SDS011;16776;50.958;10.994;2022-09-12T04:36:01;2.38;;;2.17;;
29906;SDS011;16776;50.958;10.994;2022-09-12T04:38:28;2.47;;;1.95;;
29906;SDS011;16776;50.958;10.994;2022-09-12T04:40:55;2.15;;;1.80;;
29906;SDS011;16776;50.958;10.994;2022-09-12T04:43:23;3.22;;;2.17;;
29906;SDS011;16776;50.958;10.994;2022-09-12T04:45:49;4.00;;;2.00;;
29906;SDS011;16776;50.958;10.994;2022-09-12T04:48:18;2.60;;;1.63;;
29906;SDS011;16776;50.958;10.994;2022-09-12T04:50:45;2.55;;;2.00;;
29906;SDS011;16776;50.958;10.994;2022-09-12T04:53:11;2.35;;;2.05;;
29906;SDS011;16776;50.958;10.994;2022-09-12T04:55:38;2.17;;;1.75;;
29906;SDS011;16776;50.958;10.994;2022-09-12T04:58:04;2.70;;;2.00;;
29906;SDS011;16776;50.958;10.994;2022-09-12T05:00:32;2.85;;;2.10;;
29906;SDS011;16776;50.958;10.994;2022-09-12T05:02:59;1.67;;;1.50;;
29906;SDS011;16776;50.958;10.994;2022-09-12T05:05:25;2.50;;;2.00;;
29906;SDS011;16776;50.958;10.994;2022-09-12T05:07:52;2.47;;;1.90;;
29906;SDS011;16776;50.958;10.994;2022-09-12T05:10:18;2.47;;;2.28;;
29906;SDS011;16776;50.958;10.994;2022-09-12T05:12:44;3.55;;;2.08;;
29906;SDS011;16776;50.958;10.994;2022-09-12T05:15:12;2.03;;;1.55;;
29906;SDS011;16776;50.958;10.994;2022-09-12T05:17:40;2.55;;;2.05;;
29906;SDS011;16776;50.958;10.994;2022-09-12T05:20:06;1.73;;;1.63;;
29906;SDS011;16776;50.958;10.994;2022-09-12T05:22:36;3.20;;;1.85;;
29906;SDS011;16776;50.958;10.994;2022-09-12T05:25:06;2.35;;;2.15;;
29906;SDS011;16776;50.958;10.994;2022-09-12T05:27:33;2.67;;;1.65;;
29906;SDS011;16776;50.958;10.994;2022-09-12T05:30:00;5.47;;;2.00;;
29906;SDS011;16776;50.958;10.994;2022-09-12T05:32:29;2.78;;;2.00;;
29906;SDS011;16776;50.958;10.994;2022-09-12T05:34:58;1.70;;;1.45;;
29906;SDS011;16776;50.958;10.994;2022-09-12T05:37:24;3.53;;;1.83;;
29906;SDS011;16776;50.958;10.994;2022-09-12T05:39:51;2.70;;;1.90;;
29906;SDS011;16776;50.958;10.994;2022-09-12T05:42:17;2.30;;;2.10;;
29906;SDS011;16776;50.958;10.994;2022-09-12T05:44:46;2.42;;;2.00;;
29906;SDS011;16776;50.958;10.994;2022-09-12T05:47:12;2.80;;;2.08;;
29906;SDS011;16776;50.958;10.994;2022-09-12T05:49:40;2.88;;;1.90;;
29906;SDS011;16776;50.958;10.994;2022-09-12T05:52:13;2.10;;;1.90;;
29906;SDS011;16776;50.958;10.994;2022-09-12T05:54:40;2.42;;;2.22;;
29906;SDS011;16776;50.958;10.994;2022-09-12T05:57:06;2.63;;;2.17;;
29906;SDS011;16776;50.958;10.994;2022-09-12T05:59:33;2.42;;;1.98;;
29906;SDS011;16776;50.958;10.994;2022-09-12T06:01:59;1.98;;;1.83;;
29906;SDS011;16776;50.958;10.994;2022-09-12T06:04:26;1.75;;;1.65;;
29906;SDS011;16776;50.958;10.994;2022-09-12T06:06:53;2.03;;;1.92;;
29906;SDS011;16776;50.958;10.994;2022-09-12T06:09:20;2.83;;;2.50;;
29906;SDS011;16776;50.958;10.994;2022-09-12T06:11:49;2.17;;;1.85;;
29906;SDS011;16776;50.958;10.994;2022-09-12T06:14:16;2.20;;;2.00;;
29906;SDS011;16776;50.958;10.994;2022-09-12T06:16:43;2.55;;;2.08;;
29906;SDS011;16776;50.958;10.994;2022-09-12T06:19:12;2.30;;;2.10;;
29906;SDS011;16776;50.958;10.994;2022-09-12T06:21:40;1.88;;;1.77;;
29906;SDS011;16776;50.958;10.994;2022-09-12T06:24:08;2.10;;;1.90;;
29906;SDS011;16776;50.958;10.994;2022-09-12T06:26:36;3.63;;;2.08;;
29906;SDS011;16776;50.958;10.994;2022-09-12T06:29:03;1.83;;;1.63;;
29906;SDS011;16776;50.958;10.994;2022-09-12T06:31:30;1.70;;;1.60;;
29906;SDS011;16776;50.958;10.994;2022-09-12T06:33:58;2.20;;;2.00;;
29906;SDS011;16776;50.958;10.994;2022-09-12T06:36:27;3.42;;;2.33;;
29906;SDS011;16776;50.958;10.994;2022-09-12T06:38:55;1.70;;;1.60;;
29906;SDS011;16776;50.958;10.994;2022-09-12T06:41:23;2.22;;;2.05;;
29906;SDS011;16776;50.958;10.994;2022-09-12T06:43:52;1.95;;;1.73;;
29906;SDS011;16776;50.958;10.994;2022-09-12T06:46:19;2.13;;;1.92;;
29906;SDS011;16776;50.958;10.994;2022-09-12T06:48:46;4.50;;;1.95;;
29906;SDS011;16776;50.958;10.994;2022-09-12T06:51:13;2.28;;;1.92;;
29906;SDS011;16776;50.958;10.994;2022-09-12T06:53:44;1.77;;;1.67;;
29906;SDS011;16776;50.958;10.994;2022-09-12T06:56:12;3.22;;;1.88;;
29906;SDS011;16776;50.958;10.994;2022-09-12T06:58:44;1.85;;;1.67;;
29906;SDS011;16776;50.958;10.994;2022-09-12T07:01:13;1.92;;;1.80;;
29906;SDS011;16776;50.958;10.994;2022-09-12T07:03:41;2.47;;;2.00;;
29906;SDS011;16776;50.958;10.994;2022-09-12T07:06:12;2.42;;;1.80;;
29906;SDS011;16776;50.958;10.994;2022-09-12T07:08:40;1.95;;;1.75;;
29906;SDS011;16776;50.958;10.994;2022-09-12T07:11:08;3.83;;;2.50;;
29906;SDS011;16776;50.958;10.994;2022-09-12T07:13:36;2.10;;;2.00;;
29906;SDS011;16776;50.958;10.994;2022-09-12T07:16:02;2.33;;;2.05;;
29906;SDS011;16776;50.958;10.994;2022-09-12T07:18:31;2.35;;;1.88;;
29906;SDS011;16776;50.958;10.994;2022-09-12T07:20:58;2.55;;;2.35;;
29906;SDS011;16776;50.958;10.994;2022-09-12T07:23:26;2.85;;;1.70;;
29906;SDS011;16776;50.958;10.994;2022-09-12T07:25:52;2.55;;;1.90;;
29906;SDS011;16776;50.958;10.994;2022-09-12T07:28:21;2.10;;;1.75;;
29906;SDS011;16776;50.958;10.994;2022-09-12T07:30:48;2.70;;;2.30;;
29906;SDS011;16776;50.958;10.994;2022-09-12T07:33:14;1.95;;;1.85;;
29906;SDS011;16776;50.958;10.994;2022-09-12T07:35:43;1.90;;;1.80;;
29906;SDS011;16776;50.958;10.994;2022-09-12T07:38:09;2.00;;;1.90;;
29906;SDS011;16776;50.958;10.994;2022-09-12T07:40:35;1.90;;;1.67;;
29906;SDS011;16776;50.958;10.994;2022-09-12T07:43:02;3.83;;;2.38;;
29906;SDS011;16776;50.958;10.994;2022-09-12T07:45:28;2.40;;;2.20;;
29906;SDS011;16776;50.958;10.994;2022-09-12T07:47:55;1.58;;;1.45;;
29906;SDS011;16776;50.958;10.994;2022-09-12T07:50:21;3.50;;;2.20;;
29906;SDS011;16776;50.958;10.994;2022-09-12T07:52:49;2.40;;;2.00;;
29906;SDS011;16776;50.958;10.994;2022-09-12T07:55:19;2.35;;;1.98;;
29906;SDS011;16776;50.958;10.994;2022-09-12T07:57:47;2.08;;;1.58;;
29906;SDS011;16776;50.958;10.994;2022-09-12T08:00:14;2.83;;;1.85;;
29906;SDS011;16776;50.958;10.994;2022-09-12T08:02:41;2.42;;;1.67;;
29906;SDS011;16776;50.958;10.994;2022-09-12T08:05:08;2.05;;;1.83;;
29906;SDS011;16776;50.958;10.994;2022-09-12T08:07:34;2.58;;;1.60;;
29906;SDS011;16776;50.958;10.994;2022-09-12T08:10:02;2.08;;;1.80;;
29906;SDS011;16776;50.958;10.994;2022-09-12T08:12:30;1.83;;;1.73;;
29906;SDS011;16776;50.958;10.994;2022-09-12T08:14:58;2.92;;;2.20;;
29906;SDS011;16776;50.958;10.994;2022-09-12T08:17:27;2.85;;;1.95;;
29906;SDS011;16776;50.958;10.994;2022-09-12T08:19:54;2.25;;;1.65;;
29906;SDS011;16776;50.958;10.994;2022-09-12T08:22:21;2.22;;;1.90;;
29906;SDS011;16776;50.958;10.994;2022-09-12T08:24:48;1.77;;;1.63;;
29906;SDS011;16776;50.958;10.994;2022-09-12T08:27:16;1.85;;;1.70;;
29906;SDS011;16776;50.958;10.994;2022-09-12T08:29:42;2.67;;;1.85;;
29906;SDS011;16776;50.958;10.994;2022-09-12T08:32:09;2.28;;;1.65;;
29906;SDS011;16776;50.958;10.994;2022-09-12T08:34:35;2.13;;;1.98;;
29906;SDS011;16776;50.958;10.994;2022-09-12T08:37:02;2.05;;;1.83;;
29906;SDS011;16776;50.958;10.994;2022-09-12T08:39:28;1.60;;;1.50;;
29906;SDS011;16776;50.958;10.994;2022-09-12T08:41:56;2.35;;;2.15;;
29906;SDS011;16776;50.958;10.994;2022-09-12T08:44:45;3.53;;;1.90;;
29906;SDS011;16776;50.958;10.994;2022-09-12T08:47:25;1.85;;;1.48;;
29906;SDS011;16776;50.958;10.994;2022-09-12T08:50:02;1.17;;;1.08;;
29906;SDS011;16776;50.958;10.994;2022-09-12T08:52:41;1.80;;;1.70;;
29906;SDS011;16776;50.958;10.994;2022-09-12T08:55:17;1.85;;;1.75;;
29906;SDS011;16776;50.958;10.994;2022-09-12T08:57:55;1.90;;;1.80;;
29906;SDS011;16776;50.958;10.994;2022-09-12T09:00:23;1.98;;;1.52;;
29906;SDS011;16776;50.958;10.994;2022-09-12T09:03:03;1.58;;;1.48;;
29906;SDS011;16776;50.958;10.994;2022-09-12T09:05:48;2.13;;;1.85;;
29906;SDS011;16776;50.958;10.994;2022-09-12T09:08:30;1.83;;;1.48;;
29906;SDS011;16776;50.958;10.994;2022-09-12T09:11:12;1.70;;;1.60;;
29906;SDS011;16776;50.958;10.994;2022-09-12T09:13:53;1.60;;;1.45;;
29906;SDS011;16776;50.958;10.994;2022-09-12T09:16:51;1.20;;;1.10;;
29906;SDS011;16776;50.958;10.994;2022-09-12T09:19:22;1.25;;;1.15;;
29906;SDS011;16776;50.958;10.994;2022-09-12T09:21:53;1.00;;;1.00;;
29906;SDS011;16776;50.958;10.994;2022-09-12T09:24:28;1.10;;;1.05;;
29906;SDS011;16776;50.958;10.994;2022-09-12T09:27:02;2.08;;;1.20;;
29906;SDS011;16776;50.958;10.994;2022-09-12T09:29:32;2.35;;;1.58;;
29906;SDS011;16776;50.958;10.994;2022-09-12T09:32:08;1.38;;;1.15;;
29906;SDS011;16776;50.958;10.994;2022-09-12T09:34:40;1.50;;;1.40;;
29906;SDS011;16776;50.958;10.994;2022-09-12T09:37:08;2.00;;;1.90;;
29906;SDS011;16776;50.958;10.994;2022-09-12T09:39:45;1.15;;;1.10;;
29906;SDS011;16776;50.958;10.994;2022-09-12T09:42:25;1.50;;;1.40;;
29906;SDS011;16776;50.958;10.994;2022-09-12T09:44:58;1.20;;;1.15;;
29906;SDS011;16776;50.958;10.994;2022-09-12T09:47:29;1.23;;;1.13;;
29906;SDS011;16776;50.958;10.994;2022-09-12T09:49:55;2.25;;;2.00;;
29906;SDS011;16776;50.958;10.994;2022-09-12T09:52:23;1.70;;;1.60;;
29906;SDS011;16776;50.958;10.994;2022-09-12T09:54:54;1.90;;;1.17;;
29906;SDS011;16776;50.958;10.994;2022-09-12T10:00:21;1.33;;;1.17;;
29906;SDS011;16776;50.958;10.994;2022-09-12T10:05:57;1.67;;;1.58;;
29906;SDS011;16776;50.958;10.994;2022-09-12T10:08:26;1.35;;;1.25;;
29906;SDS011;16776;50.958;10.994;2022-09-12T10:10:55;1.55;;;1.45;;
29906;SDS011;16776;50.958;10.994;2022-09-12T10:13:29;1.58;;;1.48;;
29906;SDS011;16776;50.958;10.994;2022-09-12T10:16:01;2.20;;;1.40;;
29906;SDS011;16776;50.958;10.994;2022-09-12T10:18:36;1.55;;;1.40;;
29906;SDS011;16776;50.958;10.994;2022-09-12T10:21:14;0.80;;;0.80;;
29906;SDS011;16776;50.958;10.994;2022-09-12T10:23:44;1.27;;;1.17;;
29906;SDS011;16776;50.958;10.994;2022-09-12T10:26:13;0.98;;;0.80;;
29906;SDS011;16776;50.958;10.994;2022-09-12T10:28:42;1.35;;;1.00;;
29906;SDS011;16776;50.958;10.994;2022-09-12T10:31:12;1.20;;;1.10;;
29906;SDS011;16776;50.958;10.994;2022-09-12T10:33:43;1.25;;;1.00;;
29906;SDS011;16776;50.958;10.994;2022-09-12T10:36:16;1.40;;;1.30;;
29906;SDS011;16776;50.958;10.994;2022-09-12T10:38:47;1.08;;;1.05;;
29906;SDS011;16776;50.958;10.994;2022-09-12T10:41:16;1.30;;;1.10;;
29906;SDS011;16776;50.958;10.994;2022-09-12T10:43:43;1.17;;;1.08;;
29906;SDS011;16776;50.958;10.994;2022-09-12T10:46:20;1.17;;;1.00;;
29906;SDS011;16776;50.958;10.994;2022-09-12T10:48:50;1.83;;;1.65;;
29906;SDS011;16776;50.958;10.994;2022-09-12T10:51:37;0.73;;;0.73;;
29906;SDS011;16776;50.958;10.994;2022-09-12T10:54:04;0.90;;;0.90;;
29906;SDS011;16776;50.958;10.994;2022-09-12T10:56:34;1.38;;;1.23;;
29906;SDS011;16776;50.958;10.994;2022-09-12T10:59:07;1.63;;;1.02;;
29906;SDS011;16776;50.958;10.994;2022-09-12T11:01:43;1.55;;;0.82;;
29906;SDS011;16776;50.958;10.994;2022-09-12T11:04:19;0.80;;;0.80;;
29906;SDS011;16776;50.958;10.994;2022-09-12T11:06:55;0.80;;;0.80;;
29906;SDS011;16776;50.958;10.994;2022-09-12T11:09:30;0.82;;;0.70;;
29906;SDS011;16776;50.958;10.994;2022-09-12T11:12:07;0.68;;;0.68;;
29906;SDS011;16776;50.958;10.994;2022-09-12T11:14:49;0.77;;;0.77;;
29906;SDS011;16776;50.958;10.994;2022-09-12T11:17:32;0.80;;;0.80;;
29906;SDS011;16776;50.958;10.994;2022-09-12T11:20:18;0.73;;;0.73;;
29906;SDS011;16776;50.958;10.994;2022-09-12T11:23:21;0.88;;;0.60;;
29906;SDS011;16776;50.958;10.994;2022-09-12T11:26:03;1.02;;;0.68;;
29906;SDS011;16776;50.958;10.994;2022-09-12T11:28:42;0.60;;;0.60;;
29906;SDS011;16776;50.958;10.994;2022-09-12T11:31:21;0.93;;;0.88;;
29906;SDS011;16776;50.958;10.994;2022-09-12T11:34:07;0.68;;;0.68;;
29906;SDS011;16776;50.958;10.994;2022-09-12T11:36:38;1.00;;;0.68;;
29906;SDS011;16776;50.958;10.994;2022-09-12T11:39:15;0.80;;;0.80;;
29906;SDS011;16776;50.958;10.994;2022-09-12T11:41:46;0.77;;;0.77;;
29906;SDS011;16776;50.958;10.994;2022-09-12T11:46:45;0.50;;;0.50;;
29906;SDS011;16776;50.958;10.994;2022-09-12T11:49:16;1.20;;;0.70;;
29906;SDS011;16776;50.958;10.994;2022-09-12T11:51:54;0.70;;;0.70;;
29906;SDS011;16776;50.958;10.994;2022-09-12T11:54:23;0.68;;;0.68;;
29906;SDS011;16776;50.958;10.994;2022-09-12T11:56:58;0.77;;;0.73;;
29906;SDS011;16776;50.958;10.994;2022-09-12T11:59:33;1.55;;;0.85;;
29906;SDS011;16776;50.958;10.994;2022-09-12T12:02:10;0.80;;;0.80;;
29906;SDS011;16776;50.958;10.994;2022-09-12T12:04:43;0.70;;;0.70;;
29906;SDS011;16776;50.958;10.994;2022-09-12T12:07:25;0.55;;;0.52;;
29906;SDS011;16776;50.958;10.994;2022-09-12T12:12:23;0.43;;;0.43;;
29906;SDS011;16776;50.958;10.994;2022-09-12T12:14:53;0.60;;;0.60;;
29906;SDS011;16776;50.958;10.994;2022-09-12T12:17:22;0.65;;;0.65;;
29906;SDS011;16776;50.958;10.994;2022-09-12T12:19:55;1.00;;;0.90;;
29906;SDS011;16776;50.958;10.994;2022-09-12T12:22:25;0.90;;;0.77;;
29906;SDS011;16776;50.958;10.994;2022-09-12T12:24:53;0.68;;;0.65;;
29906;SDS011;16776;50.958;10.994;2022-09-12T12:27:23;0.80;;;0.60;;
29906;SDS011;16776;50.958;10.994;2022-09-12T12:36:40;0.73;;;0.70;;
29906;SDS011;16776;50.958;10.994;2022-09-12T12:48:35;0.80;;;0.80;;
29906;SDS011;16776;50.958;10.994;2022-09-12T12:51:33;0.80;;;0.80;;
29906;SDS011;16776;50.958;10.994;2022-09-12T12:54:09;0.70;;;0.70;;
29906;SDS011;16776;50.958;10.994;2022-09-12T12:56:59;0.60;;;0.60;;
29906;SDS011;16776;50.958;10.994;2022-09-12T12:59:31;0.68;;;0.65;;
29906;SDS011;16776;50.958;10.994;2022-09-12T13:01:59;0.68;;;0.68;;
29906;SDS011;16776;50.958;10.994;2022-09-12T13:04:27;0.50;;;0.50;;
29906;SDS011;16776;50.958;10.994;2022-09-12T13:06:57;1.48;;;0.65;;
29906;SDS011;16776;50.958;10.994;2022-09-12T13:09:28;0.75;;;0.65;;
29906;SDS011;16776;50.958;10.994;2022-09-12T13:11:58;0.40;;;0.40;;
29906;SDS011;16776;50.958;10.994;2022-09-12T13:17:17;0.63;;;0.63;;
29906;SDS011;16776;50.958;10.994;2022-09-12T13:19:50;0.55;;;0.55;;
29906;SDS011;16776;50.958;10.994;2022-09-12T13:22:20;0.70;;;0.60;;
29906;SDS011;16776;50.958;10.994;2022-09-12T13:24:48;1.23;;;0.68;;
29906;SDS011;16776;50.958;10.994;2022-09-12T13:27:17;0.70;;;0.70;;
29906;SDS011;16776;50.958;10.994;2022-09-12T13:29:44;0.80;;;0.70;;
29906;SDS011;16776;50.958;10.994;2022-09-12T13:32:11;0.85;;;0.80;;
29906;SDS011;16776;50.958;10.994;2022-09-12T13:34:43;0.70;;;0.60;;
29906;SDS011;16776;50.958;10.994;2022-09-12T13:37:31;0.90;;;0.60;;
29906;SDS011;16776;50.958;10.994;2022-09-12T13:43:11;0.65;;;0.60;;
29906;SDS011;16776;50.958;10.994;2022-09-12T13:45:40;0.70;;;0.60;;
29906;SDS011;16776;50.958;10.994;2022-09-12T13:48:11;0.60;;;0.60;;
29906;SDS011;16776;50.958;10.994;2022-09-12T13:50:44;1.05;;;0.63;;
29906;SDS011;16776;50.958;10.994;2022-09-12T13:53:16;0.70;;;0.70;;
29906;SDS011;16776;50.958;10.994;2022-09-12T13:55:45;1.02;;;0.80;;
29906;SDS011;16776;50.958;10.994;2022-09-12T13:58:15;0.70;;;0.60;;
29906;SDS011;16776;50.958;10.994;2022-09-12T14:00:44;0.70;;;0.68;;
29906;SDS011;16776;50.958;10.994;2022-09-12T14:03:13;0.52;;;0.52;;
29906;SDS011;16776;50.958;10.994;2022-09-12T14:06:10;0.80;;;0.60;;
29906;SDS011;16776;50.958;10.994;2022-09-12T14:08:40;0.40;;;0.40;;
29906;SDS011;16776;50.958;10.994;2022-09-12T14:11:07;4.10;;;0.75;;
29906;SDS011;16776;50.958;10.994;2022-09-12T14:13:35;0.85;;;0.68;;
29906;SDS011;16776;50.958;10.994;2022-09-12T14:16:04;0.40;;;0.40;;
29906;SDS011;16776;50.958;10.994;2022-09-12T14:18:33;0.60;;;0.60;;
29906;SDS011;16776;50.958;10.994;2022-09-12T14:21:05;0.80;;;0.70;;
29906;SDS011;16776;50.958;10.994;2022-09-12T14:23:37;1.77;;;0.60;;
29906;SDS011;16776;50.958;10.994;2022-09-12T14:26:08;0.60;;;0.52;;
29906;SDS011;16776;50.958;10.994;2022-09-12T14:28:38;0.57;;;0.57;;
29906;SDS011;16776;50.958;10.994;2022-09-12T14:31:06;0.50;;;0.50;;
29906;SDS011;16776;50.958;10.994;2022-09-12T14:33:46;0.60;;;0.60;;
29906;SDS011;16776;50.958;10.994;2022-09-12T14:36:16;0.60;;;0.60;;
29906;SDS011;16776;50.958;10.994;2022-09-12T14:38:47;0.60;;;0.60;;
29906;SDS011;16776;50.958;10.994;2022-09-12T14:41:20;0.60;;;0.60;;
29906;SDS011;16776;50.958;10.994;2022-09-12T14:43:50;0.45;;;0.45;;
29906;SDS011;16776;50.958;10.994;2022-09-12T14:46:21;0.85;;;0.70;;
29906;SDS011;16776;50.958;10.994;2022-09-12T14:48:52;0.52;;;0.52;;
29906;SDS011;16776;50.958;10.994;2022-09-12T14:51:22;0.57;;;0.57;;
29906;SDS011;16776;50.958;10.994;2022-09-12T14:53:53;0.60;;;0.60;;
29906;SDS011;16776;50.958;10.994;2022-09-12T14:56:20;0.65;;;0.60;;
29906;SDS011;16776;50.958;10.994;2022-09-12T14:58:47;0.52;;;0.52;;
29906;SDS011;16776;50.958;10.994;2022-09-12T15:01:22;0.70;;;0.70;;
29906;SDS011;16776;50.958;10.994;2022-09-12T15:03:51;0.57;;;0.57;;
29906;SDS011;16776;50.958;10.994;2022-09-12T15:06:20;0.75;;;0.75;;
29906;SDS011;16776;50.958;10.994;2022-09-12T15:08:49;0.80;;;0.80;;
29906;SDS011;16776;50.958;10.994;2022-09-12T15:11:19;0.70;;;0.70;;
29906;SDS011;16776;50.958;10.994;2022-09-12T15:13:49;0.73;;;0.73;;
29906;SDS011;16776;50.958;10.994;2022-09-12T15:16:16;1.35;;;1.17;;
29906;SDS011;16776;50.958;10.994;2022-09-12T15:18:42;0.90;;;0.90;;
29906;SDS011;16776;50.958;10.994;2022-09-12T15:21:10;0.85;;;0.85;;
29906;SDS011;16776;50.958;10.994;2022-09-12T15:23:39;0.80;;;0.80;;
29906;SDS011;16776;50.958;10.994;2022-09-12T15:26:10;1.00;;;1.00;;
29906;SDS011;16776;50.958;10.994;2022-09-12T15:28:39;1.35;;;0.73;;
29906;SDS011;16776;50.958;10.994;2022-09-12T15:31:09;0.88;;;0.70;;
29906;SDS011;16776;50.958;10.994;2022-09-12T15:33:38;0.70;;;0.70;;
29906;SDS011;16776;50.958;10.994;2022-09-12T15:36:09;1.48;;;1.08;;